sensor_id;sensor_type;location;lat;lon;timestamp;temperature;humidity
15983;DHT22;14442;50.196;8.096;2023-04-01T00:01:57;23.10;46.50
15983;DHT22;14442;50.196;8.096;2023-04-01T00:04:24;23.10;46.50
15983;DHT22;14442;50.196;8.096;2023-04-01T00:06:50;23.00;46.40
15983;DHT22;14442;50.196;8.096;2023-04-01T00:09:18;23.00;46.40
15983;DHT22;14442;50.196;8.096;2023-04-01T00:11:45;23.00;46.30
15983;DHT22;14442;50.196;8.096;2023-04-01T00:14:12;23.00;46.30
15983;DHT22;14442;50.196;8.096;2023-04-01T00:16:39;23.00;46.30
15983;DHT22;14442;50.196;8.096;2023-04-01T00:19:07;23.00;46.30
15983;DHT22;14442;50.196;8.096;2023-04-01T00:21:33;23.00;46.20
15983;DHT22;14442;50.196;8.096;2023-04-01T00:24:01;23.00;46.20
15983;DHT22;14442;50.196;8.096;2023-04-01T00:26:27;23.00;46.20
15983;DHT22;14442;50.196;8.096;2023-04-01T00:28:54;23.00;46.20
15983;DHT22;14442;50.196;8.096;2023-04-01T00:31:21;23.00;46.20
15983;DHT22;14442;50.196;8.096;2023-04-01T00:33:47;23.00;46.20
15983;DHT22;14442;50.196;8.096;2023-04-01T00:36:17;23.00;46.10
15983;DHT22;14442;50.196;8.096;2023-04-01T00:38:45;23.00;46.10
15983;DHT22;14442;50.196;8.096;2023-04-01T00:41:13;23.10;46.10
15983;DHT22;14442;50.196;8.096;2023-04-01T00:43:41;23.10;46.00
15983;DHT22;14442;50.196;8.096;2023-04-01T00:46:08;23.10;46.00
15983;DHT22;14442;50.196;8.096;2023-04-01T00:48:37;23.10;46.00
15983;DHT22;14442;50.196;8.096;2023-04-01T00:51:09;23.10;46.00
15983;DHT22;14442;50.196;8.096;2023-04-01T00:53:41;23.10;46.00
15983;DHT22;14442;50.196;8.096;2023-04-01T00:56:12;23.10;45.90
15983;DHT22;14442;50.196;8.096;2023-04-01T00:58:42;23.10;46.00
15983;DHT22;14442;50.196;8.096;2023-04-01T01:01:10;23.10;45.90
15983;DHT22;14442;50.196;8.096;2023-04-01T01:03:37;23.10;45.90
15983;DHT22;14442;50.196;8.096;2023-04-01T01:06:10;23.10;45.90
15983;DHT22;14442;50.196;8.096;2023-04-01T01:11:36;23.10;45.90
15983;DHT22;14442;50.196;8.096;2023-04-01T01:14:10;23.10;45.90
15983;DHT22;14442;50.196;8.096;2023-04-01T01:16:43;23.10;45.90
15983;DHT22;14442;50.196;8.096;2023-04-01T01:19:26;23.10;45.90
15983;DHT22;14442;50.196;8.096;2023-04-01T01:22:10;23.00;45.70
15983;DHT22;14442;50.196;8.096;2023-04-01T01:24:54;23.10;45.90
15983;DHT22;14442;50.196;8.096;2023-04-01T01:27:22;23.10;45.80
15983;DHT22;14442;50.196;8.096;2023-04-01T01:30:18;23.10;45.80
15983;DHT22;14442;50.196;8.096;2023-04-01T01:33:11;23.10;45.80
15983;DHT22;14442;50.196;8.096;2023-04-01T01:35:44;23.00;45.70
15983;DHT22;14442;50.196;8.096;2023-04-01T01:38:15;23.10;45.80
15983;DHT22;14442;50.196;8.096;2023-04-01T01:40:45;23.10;45.80
15983;DHT22;14442;50.196;8.096;2023-04-01T01:43:15;23.00;45.70
15983;DHT22;14442;50.196;8.096;2023-04-01T01:45:46;23.10;45.80
15983;DHT22;14442;50.196;8.096;2023-04-01T01:48:13;23.00;45.70
15983;DHT22;14442;50.196;8.096;2023-04-01T01:50:45;23.10;45.70
15983;DHT22;14442;50.196;8.096;2023-04-01T01:53:12;23.10;45.70
15983;DHT22;14442;50.196;8.096;2023-04-01T01:55:41;23.00;45.70
15983;DHT22;14442;50.196;8.096;2023-04-01T01:58:13;23.00;45.70
15983;DHT22;14442;50.196;8.096;2023-04-01T02:00:42;23.00;45.70
15983;DHT22;14442;50.196;8.096;2023-04-01T02:03:11;23.10;45.70
15983;DHT22;14442;50.196;8.096;2023-04-01T02:05:39;23.10;45.70
15983;DHT22;14442;50.196;8.096;2023-04-01T02:08:11;23.10;45.70
15983;DHT22;14442;50.196;8.096;2023-04-01T02:10:42;23.10;45.70
15983;DHT22;14442;50.196;8.096;2023-04-01T02:13:16;23.00;45.60
15983;DHT22;14442;50.196;8.096;2023-04-01T02:15:47;23.00;45.70
15983;DHT22;14442;50.196;8.096;2023-04-01T02:18:16;23.00;45.70
15983;DHT22;14442;50.196;8.096;2023-04-01T02:20:45;23.10;45.70
15983;DHT22;14442;50.196;8.096;2023-04-01T02:23:13;23.10;45.60
15983;DHT22;14442;50.196;8.096;2023-04-01T02:25:41;23.10;45.60
15983;DHT22;14442;50.196;8.096;2023-04-01T02:28:10;23.10;45.50
15983;DHT22;14442;50.196;8.096;2023-04-01T02:30:39;23.10;45.50
15983;DHT22;14442;50.196;8.096;2023-04-01T02:33:07;23.10;45.50
15983;DHT22;14442;50.196;8.096;2023-04-01T02:35:36;23.10;45.50
15983;DHT22;14442;50.196;8.096;2023-04-01T02:38:03;23.10;45.40
15983;DHT22;14442;50.196;8.096;2023-04-01T02:40:43;23.10;45.40
15983;DHT22;14442;50.196;8.096;2023-04-01T02:43:09;23.10;45.40
15983;DHT22;14442;50.196;8.096;2023-04-01T02:45:36;23.10;45.40
15983;DHT22;14442;50.196;8.096;2023-04-01T02:48:04;23.10;45.40
15983;DHT22;14442;50.196;8.096;2023-04-01T02:50:31;23.10;45.40
15983;DHT22;14442;50.196;8.096;2023-04-01T02:52:57;23.10;45.40
15983;DHT22;14442;50.196;8.096;2023-04-01T02:55:24;23.10;45.40
15983;DHT22;14442;50.196;8.096;2023-04-01T02:57:52;23.10;45.40
15983;DHT22;14442;50.196;8.096;2023-04-01T03:00:19;23.10;45.30
15983;DHT22;14442;50.196;8.096;2023-04-01T03:02:45;23.10;45.30
15983;DHT22;14442;50.196;8.096;2023-04-01T03:05:12;23.10;45.40
15983;DHT22;14442;50.196;8.096;2023-04-01T03:07:39;23.10;45.30
15983;DHT22;14442;50.196;8.096;2023-04-01T03:10:06;23.10;45.20
15983;DHT22;14442;50.196;8.096;2023-04-01T03:12:33;23.10;45.30
15983;DHT22;14442;50.196;8.096;2023-04-01T03:15:01;23.10;45.30
15983;DHT22;14442;50.196;8.096;2023-04-01T03:17:28;23.00;45.30
15983;DHT22;14442;50.196;8.096;2023-04-01T03:19:55;23.00;45.30
15983;DHT22;14442;50.196;8.096;2023-04-01T03:22:21;23.00;45.20
15983;DHT22;14442;50.196;8.096;2023-04-01T03:24:48;23.00;45.20
15983;DHT22;14442;50.196;8.096;2023-04-01T03:27:15;23.00;45.20
15983;DHT22;14442;50.196;8.096;2023-04-01T03:29:42;23.00;45.20
15983;DHT22;14442;50.196;8.096;2023-04-01T03:32:10;23.00;45.30
15983;DHT22;14442;50.196;8.096;2023-04-01T03:34:37;23.00;45.30
15983;DHT22;14442;50.196;8.096;2023-04-01T03:37:03;23.00;45.30
15983;DHT22;14442;50.196;8.096;2023-04-01T03:39:31;23.00;45.30
15983;DHT22;14442;50.196;8.096;2023-04-01T03:41:57;23.00;45.30
15983;DHT22;14442;50.196;8.096;2023-04-01T03:44:25;23.00;45.20
15983;DHT22;14442;50.196;8.096;2023-04-01T03:46:51;23.00;45.90
15983;DHT22;14442;50.196;8.096;2023-04-01T03:49:19;23.00;45.30
15983;DHT22;14442;50.196;8.096;2023-04-01T03:51:46;23.00;45.20
15983;DHT22;14442;50.196;8.096;2023-04-01T03:54:13;23.00;45.20
15983;DHT22;14442;50.196;8.096;2023-04-01T03:56:40;23.00;45.30
15983;DHT22;14442;50.196;8.096;2023-04-01T03:59:07;22.90;45.20
15983;DHT22;14442;50.196;8.096;2023-04-01T04:01:34;23.00;45.30
15983;DHT22;14442;50.196;8.096;2023-04-01T04:04:01;22.90;45.20
15983;DHT22;14442;50.196;8.096;2023-04-01T04:06:29;22.90;45.20
15983;DHT22;14442;50.196;8.096;2023-04-01T04:08:56;22.90;45.20
15983;DHT22;14442;50.196;8.096;2023-04-01T04:11:23;22.90;45.30
15983;DHT22;14442;50.196;8.096;2023-04-01T04:13:50;22.90;45.30
15983;DHT22;14442;50.196;8.096;2023-04-01T04:16:17;22.80;45.20
15983;DHT22;14442;50.196;8.096;2023-04-01T04:18:44;22.80;45.30
15983;DHT22;14442;50.196;8.096;2023-04-01T04:21:12;22.90;45.30
15983;DHT22;14442;50.196;8.096;2023-04-01T04:23:41;22.80;45.20
15983;DHT22;14442;50.196;8.096;2023-04-01T04:26:09;22.80;45.30
15983;DHT22;14442;50.196;8.096;2023-04-01T04:28:36;22.80;45.30
15983;DHT22;14442;50.196;8.096;2023-04-01T04:31:03;22.80;45.30
15983;DHT22;14442;50.196;8.096;2023-04-01T04:33:31;22.70;45.20
15983;DHT22;14442;50.196;8.096;2023-04-01T04:35:58;22.80;45.30
15983;DHT22;14442;50.196;8.096;2023-04-01T04:38:25;22.70;45.20
15983;DHT22;14442;50.196;8.096;2023-04-01T04:40:54;22.70;45.20
15983;DHT22;14442;50.196;8.096;2023-04-01T04:43:21;22.70;45.30
15983;DHT22;14442;50.196;8.096;2023-04-01T04:45:48;22.70;45.30
15983;DHT22;14442;50.196;8.096;2023-04-01T04:48:16;22.70;45.20
15983;DHT22;14442;50.196;8.096;2023-04-01T04:50:44;22.70;45.30
15983;DHT22;14442;50.196;8.096;2023-04-01T04:53:11;22.70;45.30
15983;DHT22;14442;50.196;8.096;2023-04-01T04:55:43;22.70;45.30
15983;DHT22;14442;50.196;8.096;2023-04-01T04:58:11;22.70;45.30
15983;DHT22;14442;50.196;8.096;2023-04-01T05:00:37;22.70;45.30
15983;DHT22;14442;50.196;8.096;2023-04-01T05:03:04;22.70;45.30
15983;DHT22;14442;50.196;8.096;2023-04-01T05:05:31;22.60;45.30
15983;DHT22;14442;50.196;8.096;2023-04-01T05:07:57;22.70;45.30
15983;DHT22;14442;50.196;8.096;2023-04-01T05:10:24;22.70;45.30
15983;DHT22;14442;50.196;8.096;2023-04-01T05:12:51;22.70;45.30
15983;DHT22;14442;50.196;8.096;2023-04-01T05:15:19;22.60;45.30
15983;DHT22;14442;50.196;8.096;2023-04-01T05:17:45;22.60;45.30
15983;DHT22;14442;50.196;8.096;2023-04-01T05:20:12;22.60;45.30
15983;DHT22;14442;50.196;8.096;2023-04-01T05:22:40;22.60;45.30
15983;DHT22;14442;50.196;8.096;2023-04-01T05:25:07;22.60;45.30
15983;DHT22;14442;50.196;8.096;2023-04-01T05:27:34;22.60;45.30
15983;DHT22;14442;50.196;8.096;2023-04-01T05:30:00;22.60;45.30
15983;DHT22;14442;50.196;8.096;2023-04-01T05:32:30;22.60;45.30
15983;DHT22;14442;50.196;8.096;2023-04-01T05:34:57;22.60;45.30
15983;DHT22;14442;50.196;8.096;2023-04-01T05:37:24;22.60;45.30
15983;DHT22;14442;50.196;8.096;2023-04-01T05:39:50;22.60;45.30
15983;DHT22;14442;50.196;8.096;2023-04-01T05:42:17;22.60;45.30
15983;DHT22;14442;50.196;8.096;2023-04-01T05:44:43;22.60;45.30
15983;DHT22;14442;50.196;8.096;2023-04-01T05:47:10;22.50;45.20
15983;DHT22;14442;50.196;8.096;2023-04-01T05:49:38;22.50;45.20
15983;DHT22;14442;50.196;8.096;2023-04-01T05:52:05;22.50;45.30
15983;DHT22;14442;50.196;8.096;2023-04-01T05:54:32;22.50;45.30
15983;DHT22;14442;50.196;8.096;2023-04-01T05:56:59;22.50;45.30
15983;DHT22;14442;50.196;8.096;2023-04-01T05:59:26;22.50;45.30
15983;DHT22;14442;50.196;8.096;2023-04-01T06:01:52;22.50;45.30
15983;DHT22;14442;50.196;8.096;2023-04-01T06:04:19;22.50;45.30
15983;DHT22;14442;50.196;8.096;2023-04-01T06:06:47;22.50;45.30
15983;DHT22;14442;50.196;8.096;2023-04-01T06:09:15;22.50;45.20
15983;DHT22;14442;50.196;8.096;2023-04-01T06:12:00;22.50;45.10
15983;DHT22;14442;50.196;8.096;2023-04-01T06:14:40;22.60;45.10
15983;DHT22;14442;50.196;8.096;2023-04-01T06:17:21;22.60;45.00
15983;DHT22;14442;50.196;8.096;2023-04-01T06:19:58;22.70;44.90
15983;DHT22;14442;50.196;8.096;2023-04-01T06:22:38;22.80;44.80
15983;DHT22;14442;50.196;8.096;2023-04-01T06:28:34;23.10;44.50
15983;DHT22;14442;50.196;8.096;2023-04-01T06:31:11;22.80;44.30
15983;DHT22;14442;50.196;8.096;2023-04-01T06:33:52;22.60;44.60
15983;DHT22;14442;50.196;8.096;2023-04-01T06:36:36;22.70;44.50
15983;DHT22;14442;50.196;8.096;2023-04-01T06:39:24;22.90;44.50
15983;DHT22;14442;50.196;8.096;2023-04-01T06:42:18;23.00;44.40
15983;DHT22;14442;50.196;8.096;2023-04-01T06:44:52;23.10;44.50
15983;DHT22;14442;50.196;8.096;2023-04-01T06:47:29;22.90;44.60
15983;DHT22;14442;50.196;8.096;2023-04-01T06:50:05;22.80;44.50
15983;DHT22;14442;50.196;8.096;2023-04-01T06:52:43;22.90;44.50
15983;DHT22;14442;50.196;8.096;2023-04-01T06:55:26;23.00;44.50
15983;DHT22;14442;50.196;8.096;2023-04-01T06:57:56;23.10;44.50
15983;DHT22;14442;50.196;8.096;2023-04-01T07:00:27;23.10;44.50
15983;DHT22;14442;50.196;8.096;2023-04-01T07:03:02;23.10;45.20
15983;DHT22;14442;50.196;8.096;2023-04-01T07:05:32;23.20;44.60
15983;DHT22;14442;50.196;8.096;2023-04-01T07:08:01;23.20;44.70
15983;DHT22;14442;50.196;8.096;2023-04-01T07:10:34;23.20;44.70
15983;DHT22;14442;50.196;8.096;2023-04-01T07:13:05;23.20;44.70
15983;DHT22;14442;50.196;8.096;2023-04-01T07:15:37;23.30;44.80
15983;DHT22;14442;50.196;8.096;2023-04-01T07:18:10;23.30;44.90
15983;DHT22;14442;50.196;8.096;2023-04-01T07:20:38;23.30;44.80
15983;DHT22;14442;50.196;8.096;2023-04-01T07:23:10;23.30;45.00
15983;DHT22;14442;50.196;8.096;2023-04-01T07:25:44;23.30;45.00
15983;DHT22;14442;50.196;8.096;2023-04-01T07:28:14;23.30;45.10
15983;DHT22;14442;50.196;8.096;2023-04-01T07:30:50;23.40;45.20
15983;DHT22;14442;50.196;8.096;2023-04-01T07:33:24;23.50;45.10
15983;DHT22;14442;50.196;8.096;2023-04-01T07:35:56;23.50;44.80
15983;DHT22;14442;50.196;8.096;2023-04-01T07:38:31;23.60;44.80
15983;DHT22;14442;50.196;8.096;2023-04-01T07:41:08;23.60;44.60
15983;DHT22;14442;50.196;8.096;2023-04-01T07:43:49;23.60;44.80
15983;DHT22;14442;50.196;8.096;2023-04-01T07:46:35;23.60;44.60
15983;DHT22;14442;50.196;8.096;2023-04-01T07:49:11;23.70;45.10
15983;DHT22;14442;50.196;8.096;2023-04-01T07:51:44;23.70;45.00
15983;DHT22;14442;50.196;8.096;2023-04-01T07:54:21;23.80;45.00
15983;DHT22;14442;50.196;8.096;2023-04-01T07:56:56;23.70;44.80
15983;DHT22;14442;50.196;8.096;2023-04-01T07:59:29;23.70;44.80
15983;DHT22;14442;50.196;8.096;2023-04-01T08:02:04;23.70;44.70
15983;DHT22;14442;50.196;8.096;2023-04-01T08:04:46;23.80;44.70
15983;DHT22;14442;50.196;8.096;2023-04-01T08:07:20;23.80;44.60
15983;DHT22;14442;50.196;8.096;2023-04-01T08:09:54;23.80;44.60
15983;DHT22;14442;50.196;8.096;2023-04-01T08:12:31;23.80;44.60
15983;DHT22;14442;50.196;8.096;2023-04-01T08:15:11;23.80;44.60
15983;DHT22;14442;50.196;8.096;2023-04-01T08:17:44;23.80;44.50
15983;DHT22;14442;50.196;8.096;2023-04-01T08:20:23;23.80;44.50
15983;DHT22;14442;50.196;8.096;2023-04-01T08:22:57;23.80;44.50
15983;DHT22;14442;50.196;8.096;2023-04-01T08:25:27;23.80;44.60
15983;DHT22;14442;50.196;8.096;2023-04-01T08:28:00;23.80;44.60
15983;DHT22;14442;50.196;8.096;2023-04-01T08:30:36;23.80;44.60
15983;DHT22;14442;50.196;8.096;2023-04-01T08:33:10;23.80;44.40
15983;DHT22;14442;50.196;8.096;2023-04-01T08:35:41;23.80;44.40
15983;DHT22;14442;50.196;8.096;2023-04-01T08:38:12;23.90;44.50
15983;DHT22;14442;50.196;8.096;2023-04-01T08:40:58;23.90;44.40
15983;DHT22;14442;50.196;8.096;2023-04-01T08:46:34;23.90;44.40
15983;DHT22;14442;50.196;8.096;2023-04-01T08:49:16;23.90;44.40
15983;DHT22;14442;50.196;8.096;2023-04-01T08:52:00;23.90;44.40
15983;DHT22;14442;50.196;8.096;2023-04-01T08:54:46;23.90;44.30
15983;DHT22;14442;50.196;8.096;2023-04-01T08:57:28;24.00;44.30
15983;DHT22;14442;50.196;8.096;2023-04-01T09:00:10;24.00;44.30
15983;DHT22;14442;50.196;8.096;2023-04-01T09:02:51;24.00;44.20
15983;DHT22;14442;50.196;8.096;2023-04-01T09:05:36;24.10;44.30
15983;DHT22;14442;50.196;8.096;2023-04-01T09:08:27;24.10;44.30
15983;DHT22;14442;50.196;8.096;2023-04-01T09:11:08;24.00;44.20
15983;DHT22;14442;50.196;8.096;2023-04-01T09:14:12;24.10;44.30
15983;DHT22;14442;50.196;8.096;2023-04-01T09:17:02;24.10;44.30
15983;DHT22;14442;50.196;8.096;2023-04-01T09:19:43;24.10;44.20
15983;DHT22;14442;50.196;8.096;2023-04-01T09:22:30;24.00;44.30
15983;DHT22;14442;50.196;8.096;2023-04-01T09:25:38;24.00;44.30
15983;DHT22;14442;50.196;8.096;2023-04-01T09:28:17;24.00;44.50
15983;DHT22;14442;50.196;8.096;2023-04-01T09:31:12;24.00;44.50
15983;DHT22;14442;50.196;8.096;2023-04-01T09:33:59;23.90;44.50
15983;DHT22;14442;50.196;8.096;2023-04-01T09:36:45;23.90;44.70
15983;DHT22;14442;50.196;8.096;2023-04-01T09:39:36;23.80;44.60
15983;DHT22;14442;50.196;8.096;2023-04-01T09:42:15;23.80;44.60
15983;DHT22;14442;50.196;8.096;2023-04-01T09:44:56;23.80;44.60
15983;DHT22;14442;50.196;8.096;2023-04-01T09:47:40;23.80;44.60
15983;DHT22;14442;50.196;8.096;2023-04-01T09:50:30;23.80;44.60
15983;DHT22;14442;50.196;8.096;2023-04-01T09:53:06;23.80;44.60
15983;DHT22;14442;50.196;8.096;2023-04-01T09:59:15;23.80;44.60
15983;DHT22;14442;50.196;8.096;2023-04-01T10:05:29;23.80;44.70
15983;DHT22;14442;50.196;8.096;2023-04-01T10:14:26;23.70;44.60
15983;DHT22;14442;50.196;8.096;2023-04-01T10:20:15;23.70;44.70
15983;DHT22;14442;50.196;8.096;2023-04-01T10:26:24;23.70;44.80
15983;DHT22;14442;50.196;8.096;2023-04-01T10:38:46;23.60;44.80
15983;DHT22;14442;50.196;8.096;2023-04-01T10:44:56;23.70;45.10
15983;DHT22;14442;50.196;8.096;2023-04-01T10:51:01;23.60;45.20
15983;DHT22;14442;50.196;8.096;2023-04-01T10:56:38;23.60;45.20
15983;DHT22;14442;50.196;8.096;2023-04-01T11:06:03;23.50;45.20
15983;DHT22;14442;50.196;8.096;2023-04-01T11:09:19;23.50;45.30
15983;DHT22;14442;50.196;8.096;2023-04-01T11:12:30;23.50;46.30
15983;DHT22;14442;50.196;8.096;2023-04-01T11:18:20;23.50;45.50
15983;DHT22;14442;50.196;8.096;2023-04-01T11:23:54;23.60;45.40
15983;DHT22;14442;50.196;8.096;2023-04-01T11:26:33;23.50;45.40
15983;DHT22;14442;50.196;8.096;2023-04-01T11:32:15;23.50;45.40
15983;DHT22;14442;50.196;8.096;2023-04-01T11:35:00;23.60;45.40
15983;DHT22;14442;50.196;8.096;2023-04-01T11:37:37;23.60;45.50
15983;DHT22;14442;50.196;8.096;2023-04-01T11:40:14;23.70;45.60
15983;DHT22;14442;50.196;8.096;2023-04-01T11:42:49;23.70;45.60
15983;DHT22;14442;50.196;8.096;2023-04-01T11:45:27;23.70;45.80
15983;DHT22;14442;50.196;8.096;2023-04-01T11:48:11;23.70;45.70
15983;DHT22;14442;50.196;8.096;2023-04-01T11:50:53;23.70;45.60
15983;DHT22;14442;50.196;8.096;2023-04-01T11:53:32;23.80;45.70
15983;DHT22;14442;50.196;8.096;2023-04-01T11:56:11;23.80;45.60
15983;DHT22;14442;50.196;8.096;2023-04-01T11:58:57;23.80;45.40
15983;DHT22;14442;50.196;8.096;2023-04-01T12:01:31;23.80;45.40
15983;DHT22;14442;50.196;8.096;2023-04-01T12:04:25;23.80;45.40
15983;DHT22;14442;50.196;8.096;2023-04-01T12:07:02;23.70;45.40
15983;DHT22;14442;50.196;8.096;2023-04-01T12:09:40;23.70;45.50
15983;DHT22;14442;50.196;8.096;2023-04-01T12:12:17;23.80;45.60
15983;DHT22;14442;50.196;8.096;2023-04-01T12:14:54;23.70;45.50
15983;DHT22;14442;50.196;8.096;2023-04-01T12:17:31;23.70;45.50
15983;DHT22;14442;50.196;8.096;2023-04-01T12:20:19;23.70;45.40
15983;DHT22;14442;50.196;8.096;2023-04-01T12:22:53;23.70;45.40
15983;DHT22;14442;50.196;8.096;2023-04-01T12:25:35;23.80;45.50
15983;DHT22;14442;50.196;8.096;2023-04-01T12:28:10;23.80;45.40
15983;DHT22;14442;50.196;8.096;2023-04-01T12:30:51;23.80;45.40
15983;DHT22;14442;50.196;8.096;2023-04-01T12:33:37;23.80;45.30
15983;DHT22;14442;50.196;8.096;2023-04-01T12:36:18;23.90;45.40
15983;DHT22;14442;50.196;8.096;2023-04-01T12:38:55;23.90;45.40
15983;DHT22;14442;50.196;8.096;2023-04-01T12:41:31;23.90;45.40
15983;DHT22;14442;50.196;8.096;2023-04-01T12:44:23;23.90;45.40
15983;DHT22;14442;50.196;8.096;2023-04-01T12:47:06;23.90;45.30
15983;DHT22;14442;50.196;8.096;2023-04-01T12:52:37;23.90;45.30
15983;DHT22;14442;50.196;8.096;2023-04-01T12:55:41;23.90;45.20
15983;DHT22;14442;50.196;8.096;2023-04-01T12:58:23;24.00;45.20
15983;DHT22;14442;50.196;8.096;2023-04-01T13:01:13;24.10;45.30
15983;DHT22;14442;50.196;8.096;2023-04-01T13:03:58;24.10;45.30
15983;DHT22;14442;50.196;8.096;2023-04-01T13:06:41;24.10;45.30
15983;DHT22;14442;50.196;8.096;2023-04-01T13:09:23;24.10;45.30
15983;DHT22;14442;50.196;8.096;2023-04-01T13:12:03;24.00;45.40
15983;DHT22;14442;50.196;8.096;2023-04-01T13:15:01;24.00;45.40
15983;DHT22;14442;50.196;8.096;2023-04-01T13:17:36;24.00;45.40
15983;DHT22;14442;50.196;8.096;2023-04-01T13:20:15;24.00;45.40
15983;DHT22;14442;50.196;8.096;2023-04-01T13:22:55;24.00;45.40
15983;DHT22;14442;50.196;8.096;2023-04-01T13:25:29;24.00;45.40
15983;DHT22;14442;50.196;8.096;2023-04-01T13:28:06;23.90;45.40
15983;DHT22;14442;50.196;8.096;2023-04-01T13:30:38;24.00;45.40
15983;DHT22;14442;50.196;8.096;2023-04-01T13:33:15;24.00;45.40
15983;DHT22;14442;50.196;8.096;2023-04-01T13:35:48;24.00;45.30
15983;DHT22;14442;50.196;8.096;2023-04-01T13:38:43;24.00;45.30
15983;DHT22;14442;50.196;8.096;2023-04-01T13:41:21;24.00;45.30
15983;DHT22;14442;50.196;8.096;2023-04-01T13:43:52;24.00;45.30
15983;DHT22;14442;50.196;8.096;2023-04-01T13:46:47;24.00;45.30
15983;DHT22;14442;50.196;8.096;2023-04-01T13:49:36;24.00;45.40
15983;DHT22;14442;50.196;8.096;2023-04-01T13:55:16;24.00;45.40
15983;DHT22;14442;50.196;8.096;2023-04-01T13:58:11;24.00;45.30
15983;DHT22;14442;50.196;8.096;2023-04-01T14:00:52;24.10;45.30
15983;DHT22;14442;50.196;8.096;2023-04-01T14:03:49;24.10;45.30
15983;DHT22;14442;50.196;8.096;2023-04-01T14:06:23;24.10;45.30
15983;DHT22;14442;50.196;8.096;2023-04-01T14:09:11;24.10;45.30
15983;DHT22;14442;50.196;8.096;2023-04-01T14:11:49;24.10;45.40
15983;DHT22;14442;50.196;8.096;2023-04-01T14:14:29;24.10;45.30
15983;DHT22;14442;50.196;8.096;2023-04-01T14:17:27;24.10;45.30
15983;DHT22;14442;50.196;8.096;2023-04-01T14:20:22;24.10;45.40
15983;DHT22;14442;50.196;8.096;2023-04-01T14:23:11;24.10;45.40
15983;DHT22;14442;50.196;8.096;2023-04-01T14:25:53;24.10;45.40
15983;DHT22;14442;50.196;8.096;2023-04-01T14:28:28;24.10;45.40
15983;DHT22;14442;50.196;8.096;2023-04-01T14:31:13;24.10;45.40
15983;DHT22;14442;50.196;8.096;2023-04-01T14:33:47;24.10;45.50
15983;DHT22;14442;50.196;8.096;2023-04-01T14:36:35;24.00;45.40
15983;DHT22;14442;50.196;8.096;2023-04-01T14:39:19;24.10;45.60
15983;DHT22;14442;50.196;8.096;2023-04-01T14:41:55;24.00;45.60
15983;DHT22;14442;50.196;8.096;2023-04-01T14:44:42;24.00;45.60
15983;DHT22;14442;50.196;8.096;2023-04-01T14:47:26;24.00;45.50
15983;DHT22;14442;50.196;8.096;2023-04-01T14:50:03;24.00;45.50
15983;DHT22;14442;50.196;8.096;2023-04-01T14:52:33;24.00;45.50
15983;DHT22;14442;50.196;8.096;2023-04-01T14:55:10;23.90;45.50
15983;DHT22;14442;50.196;8.096;2023-04-01T14:57:41;23.90;45.50
15983;DHT22;14442;50.196;8.096;2023-04-01T15:00:14;24.00;45.60
15983;DHT22;14442;50.196;8.096;2023-04-01T15:02:48;24.00;45.40
15983;DHT22;14442;50.196;8.096;2023-04-01T15:05:27;24.00;45.40
15983;DHT22;14442;50.196;8.096;2023-04-01T15:08:05;24.00;45.40
15983;DHT22;14442;50.196;8.096;2023-04-01T15:13:44;24.00;45.40
15983;DHT22;14442;50.196;8.096;2023-04-01T15:16:20;24.00;45.40
15983;DHT22;14442;50.196;8.096;2023-04-01T15:18:56;24.10;45.40
15983;DHT22;14442;50.196;8.096;2023-04-01T15:21:37;24.00;45.40
15983;DHT22;14442;50.196;8.096;2023-04-01T15:24:15;24.10;45.40
15983;DHT22;14442;50.196;8.096;2023-04-01T15:27:10;24.00;45.40
15983;DHT22;14442;50.196;8.096;2023-04-01T15:29:51;24.00;46.20
15983;DHT22;14442;50.196;8.096;2023-04-01T15:32:29;23.90;45.50
15983;DHT22;14442;50.196;8.096;2023-04-01T15:35:06;24.00;45.60
15983;DHT22;14442;50.196;8.096;2023-04-01T15:37:41;24.00;45.60
15983;DHT22;14442;50.196;8.096;2023-04-01T15:40:18;24.00;45.60
15983;DHT22;14442;50.196;8.096;2023-04-01T15:42:55;23.90;45.50
15983;DHT22;14442;50.196;8.096;2023-04-01T15:45:35;23.90;46.20
15983;DHT22;14442;50.196;8.096;2023-04-01T15:48:17;23.90;45.50
15983;DHT22;14442;50.196;8.096;2023-04-01T15:51:07;23.90;45.40
15983;DHT22;14442;50.196;8.096;2023-04-01T15:53:56;24.00;45.50
15983;DHT22;14442;50.196;8.096;2023-04-01T15:56:40;24.00;45.40
15983;DHT22;14442;50.196;8.096;2023-04-01T15:59:18;24.00;45.40
15983;DHT22;14442;50.196;8.096;2023-04-01T16:01:51;24.00;45.50
15983;DHT22;14442;50.196;8.096;2023-04-01T16:04:40;24.00;45.50
15983;DHT22;14442;50.196;8.096;2023-04-01T16:07:16;24.00;45.60
15983;DHT22;14442;50.196;8.096;2023-04-01T16:09:56;24.00;45.60
15983;DHT22;14442;50.196;8.096;2023-04-01T16:12:37;23.90;45.50
15983;DHT22;14442;50.196;8.096;2023-04-01T16:15:16;23.90;45.60
15983;DHT22;14442;50.196;8.096;2023-04-01T16:18:07;23.90;45.70
15983;DHT22;14442;50.196;8.096;2023-04-01T16:20:46;23.90;45.70
15983;DHT22;14442;50.196;8.096;2023-04-01T16:23:17;23.90;45.80
15983;DHT22;14442;50.196;8.096;2023-04-01T16:25:51;23.90;46.40
15983;DHT22;14442;50.196;8.096;2023-04-01T16:28:24;23.90;45.80
15983;DHT22;14442;50.196;8.096;2023-04-01T16:30:58;23.80;45.80
15983;DHT22;14442;50.196;8.096;2023-04-01T16:33:38;23.80;45.70
15983;DHT22;14442;50.196;8.096;2023-04-01T16:36:12;23.80;45.80
15983;DHT22;14442;50.196;8.096;2023-04-01T16:38:43;23.80;45.80
15983;DHT22;14442;50.196;8.096;2023-04-01T16:41:17;23.70;45.70
15983;DHT22;14442;50.196;8.096;2023-04-01T16:43:46;23.70;46.30
15983;DHT22;14442;50.196;8.096;2023-04-01T16:46:30;23.70;45.80
15983;DHT22;14442;50.196;8.096;2023-04-01T16:49:15;23.70;45.80
15983;DHT22;14442;50.196;8.096;2023-04-01T16:51:47;23.70;45.70
15983;DHT22;14442;50.196;8.096;2023-04-01T16:54:26;23.70;45.70
15983;DHT22;14442;50.196;8.096;2023-04-01T16:56:55;23.70;45.70
15983;DHT22;14442;50.196;8.096;2023-04-01T16:59:35;23.70;45.70
15983;DHT22;14442;50.196;8.096;2023-04-01T17:02:08;23.70;45.60
15983;DHT22;14442;50.196;8.096;2023-04-01T17:04:38;23.70;45.70
15983;DHT22;14442;50.196;8.096;2023-04-01T17:07:19;23.60;45.60
15983;DHT22;14442;50.196;8.096;2023-04-01T17:13:19;23.60;45.60
15983;DHT22;14442;50.196;8.096;2023-04-01T17:15:54;23.60;45.60
15983;DHT22;14442;50.196;8.096;2023-04-01T17:18:30;23.60;45.60
15983;DHT22;14442;50.196;8.096;2023-04-01T17:21:02;23.60;45.60
15983;DHT22;14442;50.196;8.096;2023-04-01T17:23:36;23.60;45.60
15983;DHT22;14442;50.196;8.096;2023-04-01T17:26:12;23.60;45.60
15983;DHT22;14442;50.196;8.096;2023-04-01T17:28:47;23.60;45.60
15983;DHT22;14442;50.196;8.096;2023-04-01T17:31:26;23.60;45.70
15983;DHT22;14442;50.196;8.096;2023-04-01T17:34:06;23.60;45.70
15983;DHT22;14442;50.196;8.096;2023-04-01T17:36:51;23.50;45.60
15983;DHT22;14442;50.196;8.096;2023-04-01T17:39:35;23.50;45.70